sensor_id;sensor_type;location;lat;lon;timestamp;temperature;humidity
6863;DHT22;3470;48.738;9.616;2023-05-20T00:01:58;11.30;99.90
6863;DHT22;3470;48.738;9.616;2023-05-20T00:04:23;11.30;99.90
6863;DHT22;3470;48.738;9.616;2023-05-20T00:06:49;11.30;99.90
6863;DHT22;3470;48.738;9.616;2023-05-20T00:09:15;11.20;99.90
6863;DHT22;3470;48.738;9.616;2023-05-20T17:27:19;23.50;75.60
6863;DHT22;3470;48.738;9.616;2023-05-20T17:29:44;23.20;76.80
6863;DHT22;3470;48.738;9.616;2023-05-20T17:32:11;23.10;76.90
6863;DHT22;3470;48.738;9.616;2023-05-20T17:34:37;23.00;78.10
6863;DHT22;3470;48.738;9.616;2023-05-20T17:37:02;22.90;77.30
6863;DHT22;3470;48.738;9.616;2023-05-20T17:39:28;22.80;78.70
6863;DHT22;3470;48.738;9.616;2023-05-20T17:41:53;22.70;79.40
6863;DHT22;3470;48.738;9.616;2023-05-20T17:44:19;22.60;79.00
6863;DHT22;3470;48.738;9.616;2023-05-20T17:46:44;22.60;78.60
6863;DHT22;3470;48.738;9.616;2023-05-20T17:49:11;22.50;78.70
6863;DHT22;3470;48.738;9.616;2023-05-20T17:51:36;22.40;79.50
6863;DHT22;3470;48.738;9.616;2023-05-20T17:54:02;22.40;80.20
6863;DHT22;3470;48.738;9.616;2023-05-20T17:56:27;22.30;80.30
6863;DHT22;3470;48.738;9.616;2023-05-20T17:58:53;22.20;80.80
6863;DHT22;3470;48.738;9.616;2023-05-20T18:01:19;22.10;81.00
6863;DHT22;3470;48.738;9.616;2023-05-20T18:03:44;22.00;81.00
6863;DHT22;3470;48.738;9.616;2023-05-20T18:06:10;21.90;81.70
6863;DHT22;3470;48.738;9.616;2023-05-20T18:08:36;21.90;82.80
6863;DHT22;3470;48.738;9.616;2023-05-20T18:11:02;21.80;83.10
6863;DHT22;3470;48.738;9.616;2023-05-20T18:13:27;21.70;82.40
6863;DHT22;3470;48.738;9.616;2023-05-20T18:15:53;21.50;82.90
6863;DHT22;3470;48.738;9.616;2023-05-20T18:18:18;21.50;83.40
6863;DHT22;3470;48.738;9.616;2023-05-20T18:20:44;21.40;82.70
6863;DHT22;3470;48.738;9.616;2023-05-20T18:23:10;21.30;82.70
6863;DHT22;3470;48.738;9.616;2023-05-20T18:25:35;21.20;82.90
6863;DHT22;3470;48.738;9.616;2023-05-20T18:28:01;21.10;82.60
6863;DHT22;3470;48.738;9.616;2023-05-20T18:30:27;21.00;83.20
6863;DHT22;3470;48.738;9.616;2023-05-20T18:32:52;20.80;83.20
6863;DHT22;3470;48.738;9.616;2023-05-20T18:35:18;20.80;83.40
6863;DHT22;3470;48.738;9.616;2023-05-20T18:37:44;20.60;83.60
6863;DHT22;3470;48.738;9.616;2023-05-20T18:40:10;20.60;83.80
6863;DHT22;3470;48.738;9.616;2023-05-20T18:42:35;20.50;84.30
6863;DHT22;3470;48.738;9.616;2023-05-20T18:45:01;20.40;84.60
6863;DHT22;3470;48.738;9.616;2023-05-20T18:47:27;20.30;84.80
6863;DHT22;3470;48.738;9.616;2023-05-20T18:49:52;20.20;85.40
6863;DHT22;3470;48.738;9.616;2023-05-20T18:52:19;20.10;85.40
6863;DHT22;3470;48.738;9.616;2023-05-20T18:54:45;20.10;85.70
6863;DHT22;3470;48.738;9.616;2023-05-20T18:57:11;19.90;86.50
6863;DHT22;3470;48.738;9.616;2023-05-20T18:59:37;19.80;86.80
6863;DHT22;3470;48.738;9.616;2023-05-20T19:02:02;19.70;86.80
6863;DHT22;3470;48.738;9.616;2023-05-20T19:04:28;19.60;87.00
6863;DHT22;3470;48.738;9.616;2023-05-20T19:06:54;19.50;88.00
6863;DHT22;3470;48.738;9.616;2023-05-20T19:09:19;19.40;88.00
6863;DHT22;3470;48.738;9.616;2023-05-20T19:11:45;19.30;87.90
6863;DHT22;3470;48.738;9.616;2023-05-20T19:14:10;19.30;88.40
6863;DHT22;3470;48.738;9.616;2023-05-20T19:16:39;19.20;88.70
6863;DHT22;3470;48.738;9.616;2023-05-20T19:19:05;19.10;89.20
6863;DHT22;3470;48.738;9.616;2023-05-20T19:21:30;19.00;89.60
6863;DHT22;3470;48.738;9.616;2023-05-20T19:23:56;19.00;89.80
6863;DHT22;3470;48.738;9.616;2023-05-20T19:26:25;18.90;90.20
6863;DHT22;3470;48.738;9.616;2023-05-20T19:28:51;18.80;90.30
6863;DHT22;3470;48.738;9.616;2023-05-20T19:31:17;18.70;90.50
6863;DHT22;3470;48.738;9.616;2023-05-20T19:33:48;18.60;90.70
6863;DHT22;3470;48.738;9.616;2023-05-20T19:36:14;18.50;90.90
6863;DHT22;3470;48.738;9.616;2023-05-20T19:38:39;18.50;91.30
6863;DHT22;3470;48.738;9.616;2023-05-20T19:41:06;18.40;91.70
6863;DHT22;3470;48.738;9.616;2023-05-20T19:43:32;18.30;92.10
6863;DHT22;3470;48.738;9.616;2023-05-20T19:45:57;18.20;92.40
6863;DHT22;3470;48.738;9.616;2023-05-20T19:48:23;18.10;92.90
6863;DHT22;3470;48.738;9.616;2023-05-20T19:50:49;18.00;92.90
6863;DHT22;3470;48.738;9.616;2023-05-20T19:53:15;17.90;93.10
6863;DHT22;3470;48.738;9.616;2023-05-20T19:55:40;17.90;92.90
6863;DHT22;3470;48.738;9.616;2023-05-20T19:58:06;17.80;93.00
6863;DHT22;3470;48.738;9.616;2023-05-20T20:00:32;17.70;93.20
6863;DHT22;3470;48.738;9.616;2023-05-20T20:02:58;17.60;93.00
6863;DHT22;3470;48.738;9.616;2023-05-20T20:05:23;17.60;93.20
6863;DHT22;3470;48.738;9.616;2023-05-20T20:07:50;17.60;93.10
6863;DHT22;3470;48.738;9.616;2023-05-20T20:10:16;17.60;93.10
6863;DHT22;3470;48.738;9.616;2023-05-20T20:12:41;17.60;93.10
6863;DHT22;3470;48.738;9.616;2023-05-20T20:15:07;17.50;93.20
6863;DHT22;3470;48.738;9.616;2023-05-20T20:17:33;17.50;93.10
6863;DHT22;3470;48.738;9.616;2023-05-20T20:19:59;17.50;93.30
6863;DHT22;3470;48.738;9.616;2023-05-20T20:22:25;17.40;93.40
6863;DHT22;3470;48.738;9.616;2023-05-20T20:24:50;17.40;93.50
6863;DHT22;3470;48.738;9.616;2023-05-20T20:27:16;17.30;93.50
6863;DHT22;3470;48.738;9.616;2023-05-20T20:29:43;17.20;93.90
6863;DHT22;3470;48.738;9.616;2023-05-20T20:32:09;17.20;93.90
6863;DHT22;3470;48.738;9.616;2023-05-20T20:34:35;17.10;94.00
6863;DHT22;3470;48.738;9.616;2023-05-20T20:37:00;17.10;94.20
6863;DHT22;3470;48.738;9.616;2023-05-20T20:39:27;17.00;94.50
6863;DHT22;3470;48.738;9.616;2023-05-20T20:41:55;16.80;94.70
6863;DHT22;3470;48.738;9.616;2023-05-20T20:44:23;16.70;95.00
6863;DHT22;3470;48.738;9.616;2023-05-20T20:46:50;16.70;95.20
6863;DHT22;3470;48.738;9.616;2023-05-20T20:49:17;16.60;95.20
6863;DHT22;3470;48.738;9.616;2023-05-20T20:51:43;16.60;95.20
6863;DHT22;3470;48.738;9.616;2023-05-20T20:54:09;16.50;95.40
6863;DHT22;3470;48.738;9.616;2023-05-20T20:56:35;16.40;95.50
6863;DHT22;3470;48.738;9.616;2023-05-20T20:59:04;16.40;95.70
6863;DHT22;3470;48.738;9.616;2023-05-20T21:01:31;16.30;95.60
6863;DHT22;3470;48.738;9.616;2023-05-20T21:04:03;16.30;95.70
6863;DHT22;3470;48.738;9.616;2023-05-20T21:06:29;16.30;96.10
6863;DHT22;3470;48.738;9.616;2023-05-20T21:08:55;16.20;96.50
6863;DHT22;3470;48.738;9.616;2023-05-20T21:11:25;16.10;96.50
6863;DHT22;3470;48.738;9.616;2023-05-20T21:13:52;16.00;96.50
6863;DHT22;3470;48.738;9.616;2023-05-20T21:16:18;16.00;96.60
6863;DHT22;3470;48.738;9.616;2023-05-20T21:18:44;16.00;96.60
6863;DHT22;3470;48.738;9.616;2023-05-20T21:21:09;15.90;96.70
6863;DHT22;3470;48.738;9.616;2023-05-20T21:23:38;15.90;97.00
6863;DHT22;3470;48.738;9.616;2023-05-20T21:26:04;15.80;97.10
6863;DHT22;3470;48.738;9.616;2023-05-20T21:28:30;15.80;97.50
6863;DHT22;3470;48.738;9.616;2023-05-20T21:30:58;15.80;97.50
6863;DHT22;3470;48.738;9.616;2023-05-20T21:33:27;15.70;97.40
6863;DHT22;3470;48.738;9.616;2023-05-20T21:35:52;15.80;97.30
6863;DHT22;3470;48.738;9.616;2023-05-20T21:38:18;15.80;97.30
6863;DHT22;3470;48.738;9.616;2023-05-20T21:40:43;15.80;97.20
6863;DHT22;3470;48.738;9.616;2023-05-20T21:43:09;15.80;97.30
6863;DHT22;3470;48.738;9.616;2023-05-20T21:45:34;15.80;97.50
6863;DHT22;3470;48.738;9.616;2023-05-20T21:48:00;15.80;97.60
6863;DHT22;3470;48.738;9.616;2023-05-20T21:50:26;15.80;97.70
6863;DHT22;3470;48.738;9.616;2023-05-20T21:52:51;15.80;97.60
6863;DHT22;3470;48.738;9.616;2023-05-20T21:55:17;15.80;97.40
6863;DHT22;3470;48.738;9.616;2023-05-20T21:57:50;15.80;97.10
6863;DHT22;3470;48.738;9.616;2023-05-20T22:00:16;15.90;97.20
6863;DHT22;3470;48.738;9.616;2023-05-20T22:02:43;15.90;97.10
6863;DHT22;3470;48.738;9.616;2023-05-20T22:05:09;15.90;97.20
6863;DHT22;3470;48.738;9.616;2023-05-20T22:07:36;15.90;97.40
6863;DHT22;3470;48.738;9.616;2023-05-20T22:10:03;15.80;97.50
6863;DHT22;3470;48.738;9.616;2023-05-20T22:12:29;15.80;97.60
6863;DHT22;3470;48.738;9.616;2023-05-20T22:14:55;15.70;97.60
6863;DHT22;3470;48.738;9.616;2023-05-20T22:17:21;15.70;97.70
6863;DHT22;3470;48.738;9.616;2023-05-20T22:19:48;15.70;98.20
6863;DHT22;3470;48.738;9.616;2023-05-20T22:22:14;15.60;97.90
6863;DHT22;3470;48.738;9.616;2023-05-20T22:24:40;15.60;98.10
6863;DHT22;3470;48.738;9.616;2023-05-20T22:27:05;15.50;98.60
6863;DHT22;3470;48.738;9.616;2023-05-20T22:29:32;15.50;98.50
6863;DHT22;3470;48.738;9.616;2023-05-20T22:31:57;15.40;98.60
6863;DHT22;3470;48.738;9.616;2023-05-20T22:34:25;15.40;98.20
6863;DHT22;3470;48.738;9.616;2023-05-20T22:36:51;15.40;98.10
6863;DHT22;3470;48.738;9.616;2023-05-20T22:39:19;15.40;98.30
6863;DHT22;3470;48.738;9.616;2023-05-20T22:41:44;15.40;98.00
6863;DHT22;3470;48.738;9.616;2023-05-20T22:44:10;15.40;98.10
6863;DHT22;3470;48.738;9.616;2023-05-20T22:46:35;15.40;98.10
6863;DHT22;3470;48.738;9.616;2023-05-20T22:49:01;15.40;98.20
6863;DHT22;3470;48.738;9.616;2023-05-20T22:51:27;15.30;98.60
6863;DHT22;3470;48.738;9.616;2023-05-20T22:53:53;15.30;98.80
6863;DHT22;3470;48.738;9.616;2023-05-20T22:56:20;15.20;99.00
6863;DHT22;3470;48.738;9.616;2023-05-20T22:58:45;15.10;99.10
6863;DHT22;3470;48.738;9.616;2023-05-20T23:01:11;15.10;99.20
6863;DHT22;3470;48.738;9.616;2023-05-20T23:03:37;15.00;99.30
6863;DHT22;3470;48.738;9.616;2023-05-20T23:06:04;15.00;99.60
6863;DHT22;3470;48.738;9.616;2023-05-20T23:08:29;15.00;99.60
6863;DHT22;3470;48.738;9.616;2023-05-20T23:10:55;14.90;99.50
6863;DHT22;3470;48.738;9.616;2023-05-20T23:13:21;14.90;99.80
6863;DHT22;3470;48.738;9.616;2023-05-20T23:15:46;14.80;99.90
6863;DHT22;3470;48.738;9.616;2023-05-20T23:18:13;14.80;99.90
6863;DHT22;3470;48.738;9.616;2023-05-20T23:20:39;14.80;99.90
6863;DHT22;3470;48.738;9.616;2023-05-20T23:23:05;14.70;99.90
6863;DHT22;3470;48.738;9.616;2023-05-20T23:25:31;14.70;99.90
6863;DHT22;3470;48.738;9.616;2023-05-20T23:27:56;14.70;99.90
6863;DHT22;3470;48.738;9.616;2023-05-20T23:30:22;14.70;99.90
6863;DHT22;3470;48.738;9.616;2023-05-20T23:32:48;14.70;99.90
